Time;durP1;ratioP1;P1;durP2;ratioP2;P2;SDS_P1;SDS_P2;PMS_P1;PMS_P2;Temp;Humidity;BMP_temperature;BMP_pressure;BME280_temperature;BME280_humidity;BME280_pressure;Samples;Min_cycle;Max_cycle;Signal;HPM_P1;HPM_P2
2023/01/05 00:01:33;;;;;;;0.40;0.40;;;;;;;;;;4995255;28;20289;-83
2023/01/05 00:04:00;;;;;;;1.27;0.50;;;;;;;;;;4993009;28;20269;-83
2023/01/05 00:06:28;;;;;;;0.40;0.40;;;;;;;;;;4994575;28;20300;-82
2023/01/05 00:08:56;;;;;;;0.65;0.50;;;;;;;;;;4994123;28;20201;-82
2023/01/05 00:22:31;;;;;;;2.65;0.90;;;;;;;;;;4990498;28;20228;-83
2023/01/05 00:24:59;;;;;;;3.65;0.98;;;;;;;;;;4996459;28;20272;-83
2023/01/05 00:27:26;;;;;;;2.17;0.88;;;;;;;;;;4992433;28;20225;-83
2023/01/05 00:29:55;;;;;;;2.53;0.68;;;;;;;;;;4996300;28;20211;-84
2023/01/05 00:32:25;;;;;;;1.05;0.60;;;;;;;;;;4990164;28;20222;-89
2023/01/05 00:34:54;;;;;;;1.97;0.70;;;;;;;;;;4992436;28;20205;-84
2023/01/05 00:37:22;;;;;;;1.70;0.75;;;;;;;;;;4995384;28;20308;-87
2023/01/05 00:39:51;;;;;;;2.17;0.90;;;;;;;;;;4985504;28;20202;-87
2023/01/05 00:42:18;;;;;;;3.17;0.90;;;;;;;;;;4991844;28;20205;-87
2023/01/05 00:44:46;;;;;;;2.13;0.65;;;;;;;;;;4994525;28;20224;-86
2023/01/05 00:47:13;;;;;;;4.53;1.42;;;;;;;;;;4994251;28;20325;-86
2023/01/05 00:49:41;;;;;;;3.83;0.98;;;;;;;;;;5002223;28;20216;-87
2023/01/05 00:52:10;;;;;;;3.67;1.20;;;;;;;;;;4993421;28;20294;-88
2023/01/05 00:54:37;;;;;;;4.75;1.10;;;;;;;;;;4991769;28;20240;-84
2023/01/05 00:57:06;;;;;;;4.33;1.00;;;;;;;;;;4991849;28;20288;-87
2023/01/05 00:59:34;;;;;;;3.50;1.17;;;;;;;;;;4993282;28;20213;-86
2023/01/05 01:02:01;;;;;;;3.97;0.90;;;;;;;;;;4984605;28;20206;-83
2023/01/05 01:04:30;;;;;;;2.88;1.10;;;;;;;;;;4993847;28;20225;-86
2023/01/05 01:06:58;;;;;;;4.75;1.08;;;;;;;;;;4988954;28;20225;-85
2023/01/05 01:09:25;;;;;;;7.33;1.67;;;;;;;;;;4995322;28;20290;-86
2023/01/05 01:11:52;;;;;;;5.43;1.40;;;;;;;;;;4981096;28;20320;-85
2023/01/05 01:14:21;;;;;;;6.15;1.60;;;;;;;;;;4986070;28;20202;-85
2023/01/05 01:16:48;;;;;;;4.40;1.27;;;;;;;;;;4994679;28;20301;-85
2023/01/05 01:19:16;;;;;;;8.07;2.13;;;;;;;;;;4993696;28;20265;-89
2023/01/05 01:21:45;;;;;;;9.30;1.97;;;;;;;;;;4991395;28;20216;-85
2023/01/05 01:24:15;;;;;;;7.67;1.60;;;;;;;;;;4987398;28;20226;-86
2023/01/05 01:26:42;;;;;;;8.13;2.00;;;;;;;;;;4992808;28;20309;-86
2023/01/05 01:29:10;;;;;;;5.97;1.70;;;;;;;;;;4992905;28;20297;-86
2023/01/05 01:31:39;;;;;;;8.47;2.30;;;;;;;;;;4987925;28;20212;-86
2023/01/05 01:34:06;;;;;;;9.33;2.00;;;;;;;;;;4980449;28;20317;-85
2023/01/05 01:36:33;;;;;;;9.03;2.73;;;;;;;;;;4994378;28;20233;-86
2023/01/05 01:39:01;;;;;;;10.50;2.30;;;;;;;;;;4985639;28;20333;-86
2023/01/05 01:41:28;;;;;;;7.73;2.37;;;;;;;;;;4995051;28;20280;-85
2023/01/05 01:43:56;;;;;;;10.47;2.57;;;;;;;;;;4995246;28;20288;-85
2023/01/05 01:46:24;;;;;;;11.43;2.40;;;;;;;;;;4988529;28;20295;-85
2023/01/05 01:48:54;;;;;;;11.60;2.70;;;;;;;;;;4989879;28;20285;-86
2023/01/05 01:51:25;;;;;;;12.03;2.50;;;;;;;;;;5000133;28;20289;-87
2023/01/05 01:53:53;;;;;;;8.90;2.60;;;;;;;;;;4985795;28;20285;-85
2023/01/05 01:56:23;;;;;;;9.50;2.40;;;;;;;;;;4992010;28;20218;-87
2023/01/05 01:58:51;;;;;;;13.27;2.40;;;;;;;;;;4985474;28;20272;-87
2023/01/05 02:01:18;;;;;;;8.97;2.10;;;;;;;;;;4992160;28;20225;-87
2023/01/05 02:03:46;;;;;;;11.73;2.57;;;;;;;;;;4991529;28;20193;-87
2023/01/05 02:06:15;;;;;;;7.83;2.50;;;;;;;;;;4987484;28;20200;-87
2023/01/05 02:08:42;;;;;;;8.77;2.43;;;;;;;;;;4982896;28;20194;-87
2023/01/05 02:11:27;;;;;;;13.43;2.60;;;;;;;;;;4990095;28;20213;-87
2023/01/05 02:14:04;;;;;;;8.60;2.17;;;;;;;;;;4976352;28;20273;-85
2023/01/05 02:16:36;;;;;;;15.40;2.93;;;;;;;;;;4988641;28;20221;-85
2023/01/05 02:19:14;;;;;;;11.73;2.53;;;;;;;;;;4990174;28;20285;-86
2023/01/05 02:21:48;;;;;;;9.83;2.77;;;;;;;;;;4990697;28;20296;-85
2023/01/05 02:24:23;;;;;;;11.33;2.83;;;;;;;;;;4982763;28;20284;-85
2023/01/05 02:27:01;;;;;;;10.27;2.53;;;;;;;;;;4986631;28;20315;-85
2023/01/05 02:29:45;;;;;;;8.03;2.50;;;;;;;;;;4990215;28;20202;-84
2023/01/05 02:32:16;;;;;;;13.73;2.67;;;;;;;;;;4989925;28;20206;-85
2023/01/05 02:34:48;;;;;;;13.83;2.80;;;;;;;;;;4983038;28;20204;-85
2023/01/05 02:37:17;;;;;;;12.43;2.83;;;;;;;;;;4985180;28;20197;-85
2023/01/05 02:39:49;;;;;;;9.43;2.57;;;;;;;;;;4988480;28;20277;-86
2023/01/05 02:42:19;;;;;;;12.93;2.83;;;;;;;;;;4984447;28;20225;-85
2023/01/05 02:44:46;;;;;;;12.57;2.70;;;;;;;;;;4997319;28;20197;-85
2023/01/05 02:47:28;;;;;;;10.97;3.07;;;;;;;;;;4996233;28;20228;-86
2023/01/05 02:49:59;;;;;;;10.40;2.47;;;;;;;;;;4991467;28;20205;-86
2023/01/05 02:52:26;;;;;;;11.73;2.70;;;;;;;;;;4990754;28;20193;-84
2023/01/05 02:54:56;;;;;;;9.90;2.63;;;;;;;;;;4984664;28;20233;-83
2023/01/05 02:57:45;;;;;;;8.00;2.70;;;;;;;;;;4992377;28;20296;-84
2023/01/05 03:00:14;;;;;;;9.90;2.40;;;;;;;;;;4985966;28;20213;-85
2023/01/05 03:02:43;;;;;;;10.03;2.50;;;;;;;;;;4992609;28;20208;-83
2023/01/05 03:05:15;;;;;;;7.33;2.30;;;;;;;;;;4990058;28;20198;-84
2023/01/05 03:07:44;;;;;;;12.57;2.90;;;;;;;;;;4998271;28;20216;-85
2023/01/05 03:15:44;;;;;;;9.10;2.80;;;;;;;;;;4985855;28;20196;-84
2023/01/05 03:18:12;;;;;;;12.37;2.30;;;;;;;;;;4982296;28;20277;-85
2023/01/05 03:20:42;;;;;;;7.33;2.27;;;;;;;;;;4992107;28;20193;-85
2023/01/05 03:37:07;;;;;;;11.67;2.80;;;;;;;;;;4991566;28;20229;-84
2023/01/05 03:39:36;;;;;;;8.57;2.30;;;;;;;;;;4993313;28;20201;-84
2023/01/05 03:42:03;;;;;;;11.43;3.00;;;;;;;;;;4993385;28;20244;-85
2023/01/05 03:44:30;;;;;;;7.90;2.53;;;;;;;;;;4988096;28;20206;-87
2023/01/05 03:46:58;;;;;;;9.40;2.43;;;;;;;;;;4993059;28;20217;-83
2023/01/05 03:49:25;;;;;;;9.77;2.87;;;;;;;;;;4989998;28;20194;-84
2023/01/05 03:51:52;;;;;;;10.20;2.83;;;;;;;;;;4990130;28;20293;-84
2023/01/05 03:54:21;;;;;;;12.93;2.30;;;;;;;;;;4989753;28;20229;-85
2023/01/05 03:56:48;;;;;;;12.50;2.40;;;;;;;;;;4988798;28;20201;-85
2023/01/05 03:59:16;;;;;;;8.20;2.73;;;;;;;;;;4994696;28;20206;-85
2023/01/05 04:01:43;;;;;;;11.47;2.70;;;;;;;;;;4994440;28;20193;-84
2023/01/05 04:04:10;;;;;;;9.03;2.33;;;;;;;;;;4988691;28;20229;-84
2023/01/05 04:06:37;;;;;;;10.40;2.90;;;;;;;;;;4998061;28;20288;-84
2023/01/05 04:09:05;;;;;;;11.23;2.60;;;;;;;;;;4989531;28;20201;-84
2023/01/05 04:11:33;;;;;;;11.27;3.07;;;;;;;;;;4995148;28;20293;-84
2023/01/05 04:14:01;;;;;;;9.07;2.27;;;;;;;;;;4995871;28;20230;-85
2023/01/05 04:16:28;;;;;;;9.83;2.70;;;;;;;;;;4991331;28;20204;-83
2023/01/05 04:18:55;;;;;;;10.53;2.53;;;;;;;;;;4992880;28;20215;-83
2023/01/05 04:21:22;;;;;;;9.73;2.50;;;;;;;;;;4996712;28;20292;-83
2023/01/05 04:23:50;;;;;;;9.90;2.70;;;;;;;;;;4994466;28;20296;-84
2023/01/05 04:26:17;;;;;;;8.03;2.37;;;;;;;;;;4988998;28;20193;-84
2023/01/05 04:28:46;;;;;;;12.27;3.10;;;;;;;;;;4988942;28;20294;-86
2023/01/05 04:31:13;;;;;;;11.27;2.90;;;;;;;;;;4986831;28;20253;-83
2023/01/05 04:33:44;;;;;;;12.13;2.90;;;;;;;;;;4987204;28;20204;-84
2023/01/05 04:36:11;;;;;;;13.00;2.90;;;;;;;;;;4986335;28;20209;-84
2023/01/05 04:38:39;;;;;;;12.23;2.90;;;;;;;;;;4993239;28;20301;-84
2023/01/05 04:41:06;;;;;;;11.90;2.73;;;;;;;;;;4979929;28;20194;-84
2023/01/05 04:43:33;;;;;;;10.37;2.83;;;;;;;;;;4991318;28;20217;-86
2023/01/05 04:46:02;;;;;;;11.47;2.77;;;;;;;;;;4989813;28;20206;-84
2023/01/05 04:48:30;;;;;;;7.30;2.23;;;;;;;;;;4988196;28;20221;-84
2023/01/05 04:50:58;;;;;;;7.27;2.40;;;;;;;;;;4979955;28;20292;-85
2023/01/05 04:53:25;;;;;;;10.10;2.23;;;;;;;;;;4998782;28;20288;-85
2023/01/05 04:55:52;;;;;;;11.60;2.90;;;;;;;;;;4985924;28;20232;-84
2023/01/05 04:58:20;;;;;;;11.97;2.80;;;;;;;;;;4997604;28;20236;-83
2023/01/05 05:00:47;;;;;;;9.60;2.60;;;;;;;;;;4988196;28;20194;-84
2023/01/05 05:03:15;;;;;;;7.37;2.50;;;;;;;;;;4997301;28;20295;-83
2023/01/05 05:05:43;;;;;;;9.97;2.60;;;;;;;;;;4989387;28;20212;-84
2023/01/05 05:08:10;;;;;;;12.97;2.90;;;;;;;;;;5000619;28;20222;-84
2023/01/05 05:10:37;;;;;;;13.13;2.80;;;;;;;;;;4990152;28;20258;-85
2023/01/05 05:13:05;;;;;;;11.57;3.07;;;;;;;;;;4996730;28;20316;-86
2023/01/05 05:15:32;;;;;;;11.70;2.63;;;;;;;;;;4992161;28;20228;-85
2023/01/05 05:17:59;;;;;;;9.30;2.77;;;;;;;;;;4987747;28;20228;-83
2023/01/05 05:20:28;;;;;;;13.43;2.63;;;;;;;;;;4991937;28;20201;-85
2023/01/05 05:22:55;;;;;;;12.70;3.27;;;;;;;;;;4988483;28;20232;-85
2023/01/05 05:25:22;;;;;;;11.90;2.90;;;;;;;;;;4990668;28;20252;-85
2023/01/05 05:27:49;;;;;;;12.80;3.10;;;;;;;;;;4987122;28;20308;-85
2023/01/05 05:30:17;;;;;;;15.27;3.00;;;;;;;;;;4989692;28;20198;-85
2023/01/05 05:32:44;;;;;;;12.20;2.97;;;;;;;;;;4986769;28;20207;-82
2023/01/05 05:35:11;;;;;;;9.00;2.90;;;;;;;;;;4986931;28;20242;-84
2023/01/05 05:37:40;;;;;;;13.07;2.97;;;;;;;;;;5000133;28;20229;-83
2023/01/05 05:40:08;;;;;;;11.27;2.97;;;;;;;;;;4993901;28;20205;-83
2023/01/05 05:42:35;;;;;;;12.70;2.57;;;;;;;;;;4992822;28;20204;-83
2023/01/05 05:45:03;;;;;;;10.17;2.60;;;;;;;;;;4994556;28;20288;-83
2023/01/05 05:47:30;;;;;;;10.60;2.60;;;;;;;;;;4996190;28;20210;-82
2023/01/05 05:49:57;;;;;;;12.00;2.80;;;;;;;;;;4998111;28;20201;-86
2023/01/05 05:52:24;;;;;;;11.07;2.80;;;;;;;;;;4994058;28;20213;-84
2023/01/05 05:54:53;;;;;;;9.80;2.50;;;;;;;;;;4989117;28;20201;-86
2023/01/05 05:57:20;;;;;;;9.00;2.30;;;;;;;;;;4991271;28;20202;-85
2023/01/05 05:59:47;;;;;;;9.47;2.70;;;;;;;;;;4994771;28;20209;-85
2023/01/05 06:02:15;;;;;;;12.83;2.77;;;;;;;;;;4988641;28;20198;-84
2023/01/05 06:04:42;;;;;;;11.97;2.77;;;;;;;;;;4987315;28;20228;-86
2023/01/05 06:07:10;;;;;;;13.30;2.83;;;;;;;;;;4983434;28;20194;-92
2023/01/05 06:09:37;;;;;;;11.93;2.27;;;;;;;;;;4986306;28;20223;-84
2023/01/05 06:12:06;;;;;;;10.23;2.27;;;;;;;;;;4987098;28;20236;-93
2023/01/05 06:14:33;;;;;;;11.63;2.63;;;;;;;;;;4986621;28;20205;-89
2023/01/05 06:17:01;;;;;;;12.43;2.50;;;;;;;;;;4979618;28;20264;-89
2023/01/05 06:19:28;;;;;;;10.67;2.43;;;;;;;;;;4983665;28;20213;-91
2023/01/05 06:21:55;;;;;;;10.53;2.97;;;;;;;;;;4983754;28;20236;-89
2023/01/05 06:24:23;;;;;;;11.37;3.07;;;;;;;;;;4996271;28;20215;-85
2023/01/05 06:26:50;;;;;;;14.73;3.07;;;;;;;;;;4987156;28;20205;-91
2023/01/05 06:29:19;;;;;;;12.93;2.60;;;;;;;;;;4982657;28;20249;-84
2023/01/05 06:31:46;;;;;;;12.70;2.77;;;;;;;;;;4989866;28;20193;-87
2023/01/05 06:34:13;;;;;;;12.07;3.20;;;;;;;;;;4984975;28;20204;-83
2023/01/05 06:36:41;;;;;;;15.97;3.40;;;;;;;;;;4992178;28;20229;-84
2023/01/05 06:39:08;;;;;;;12.57;2.93;;;;;;;;;;4979059;28;20206;-82
2023/01/05 06:41:35;;;;;;;16.77;2.53;;;;;;;;;;4992396;28;20236;-83
2023/01/05 06:44:04;;;;;;;11.30;2.67;;;;;;;;;;4994450;28;20229;-82
2023/01/05 06:46:33;;;;;;;11.53;2.87;;;;;;;;;;4992145;28;20288;-86
2023/01/05 06:49:01;;;;;;;11.87;3.17;;;;;;;;;;4993216;28;20224;-82
2023/01/05 06:51:28;;;;;;;12.10;3.37;;;;;;;;;;4977343;28;20233;-82
2023/01/05 06:53:55;;;;;;;19.57;3.60;;;;;;;;;;4997623;28;20265;-82
2023/01/05 06:56:23;;;;;;;13.67;2.97;;;;;;;;;;4992601;28;20216;-82
2023/01/05 06:58:50;;;;;;;12.63;3.03;;;;;;;;;;4991968;28;20263;-83
2023/01/05 07:01:18;;;;;;;13.10;2.87;;;;;;;;;;4996326;28;20276;-82
2023/01/05 07:03:47;;;;;;;14.33;3.27;;;;;;;;;;4992625;28;20194;-82
2023/01/05 07:06:15;;;;;;;11.23;2.53;;;;;;;;;;4989580;28;20213;-82
2023/01/05 07:08:43;;;;;;;10.33;2.70;;;;;;;;;;4998201;28;20225;-82
2023/01/05 07:11:10;;;;;;;13.33;3.17;;;;;;;;;;4991945;28;20215;-82
2023/01/05 07:13:38;;;;;;;14.20;2.97;;;;;;;;;;4982734;28;20209;-83
2023/01/05 07:16:05;;;;;;;14.43;3.67;;;;;;;;;;4991256;28;20208;-83
2023/01/05 07:18:32;;;;;;;16.13;3.50;;;;;;;;;;4997258;28;20210;-83
2023/01/05 07:21:03;;;;;;;15.93;3.00;;;;;;;;;;4991829;28;20277;-82
2023/01/05 07:23:30;;;;;;;12.73;3.03;;;;;;;;;;4987375;28;20303;-82
2023/01/05 07:26:00;;;;;;;13.77;3.10;;;;;;;;;;4995720;28;20205;-83
2023/01/05 07:28:28;;;;;;;13.27;3.10;;;;;;;;;;4992750;28;20305;-83
2023/01/05 07:30:55;;;;;;;11.53;2.80;;;;;;;;;;5000963;28;20205;-82
2023/01/05 07:33:24;;;;;;;14.67;2.83;;;;;;;;;;4988358;28;20198;-82
2023/01/05 07:35:51;;;;;;;16.07;3.73;;;;;;;;;;5000435;28;20209;-83
2023/01/05 07:38:20;;;;;;;16.80;3.20;;;;;;;;;;5004683;28;20197;-83
2023/01/05 07:40:48;;;;;;;11.97;2.70;;;;;;;;;;4991576;28;20213;-83
2023/01/05 07:43:15;;;;;;;15.43;2.90;;;;;;;;;;5000999;28;20197;-82
2023/01/05 07:45:43;;;;;;;14.37;3.70;;;;;;;;;;4991680;28;20281;-81
2023/01/05 07:48:10;;;;;;;11.33;2.80;;;;;;;;;;4991112;28;20304;-82
2023/01/05 07:50:37;;;;;;;15.87;3.83;;;;;;;;;;4988912;28;20229;-81
2023/01/05 07:53:05;;;;;;;14.80;3.13;;;;;;;;;;5002291;28;20210;-83
2023/01/05 07:55:33;;;;;;;15.47;3.50;;;;;;;;;;4977367;28;20281;-82
2023/01/05 07:58:01;;;;;;;11.63;3.00;;;;;;;;;;4992414;28;20218;-82
2023/01/05 08:00:28;;;;;;;11.73;2.97;;;;;;;;;;4990135;28;20226;-82
2023/01/05 08:02:55;;;;;;;16.63;3.37;;;;;;;;;;4989547;28;20202;-82
2023/01/05 08:05:23;;;;;;;13.23;3.23;;;;;;;;;;4988922;28;20262;-82
2023/01/05 08:07:50;;;;;;;12.97;3.10;;;;;;;;;;5001496;28;20202;-82
2023/01/05 08:10:29;;;;;;;11.53;2.90;;;;;;;;;;4994617;28;20221;-82
2023/01/05 08:15:55;;;;;;;18.83;3.63;;;;;;;;;;4951830;28;20205;-83
2023/01/05 08:18:23;;;;;;;15.50;3.10;;;;;;;;;;5006411;28;20247;-82
2023/01/05 08:20:51;;;;;;;16.63;2.80;;;;;;;;;;5001122;28;20201;-82
2023/01/05 08:23:19;;;;;;;11.27;3.00;;;;;;;;;;4999573;28;20212;-82
2023/01/05 08:25:46;;;;;;;14.00;2.73;;;;;;;;;;4978471;28;20202;-82
2023/01/05 08:28:14;;;;;;;11.97;3.40;;;;;;;;;;4995258;28;20199;-83
2023/01/05 08:30:42;;;;;;;10.83;2.70;;;;;;;;;;4995773;28;20257;-82
2023/01/05 08:33:09;;;;;;;14.73;2.93;;;;;;;;;;4992057;28;20209;-82
2023/01/05 08:35:40;;;;;;;13.57;2.90;;;;;;;;;;4996069;28;20206;-82
2023/01/05 08:38:07;;;;;;;14.67;2.93;;;;;;;;;;4996025;28;20273;-82
2023/01/05 08:40:34;;;;;;;15.00;3.50;;;;;;;;;;4994704;28;20205;-87
2023/01/05 08:43:01;;;;;;;14.87;3.10;;;;;;;;;;4995276;28;20234;-83
2023/01/05 08:45:30;;;;;;;13.10;3.30;;;;;;;;;;4999548;28;20200;-82
2023/01/05 08:47:57;;;;;;;15.97;3.13;;;;;;;;;;5002925;28;20206;-82
2023/01/05 08:50:24;;;;;;;11.27;3.13;;;;;;;;;;4997083;28;20303;-82
2023/01/05 08:52:52;;;;;;;13.53;3.27;;;;;;;;;;5002709;28;20217;-84
2023/01/05 08:55:19;;;;;;;13.53;3.50;;;;;;;;;;4996021;28;20198;-83
2023/01/05 08:57:46;;;;;;;13.47;3.93;;;;;;;;;;4986922;28;20198;-83
2023/01/05 09:00:16;;;;;;;14.20;3.60;;;;;;;;;;4993058;28;20197;-84
2023/01/05 09:02:45;;;;;;;15.90;3.63;;;;;;;;;;4996806;28;20220;-82
2023/01/05 09:05:12;;;;;;;11.53;3.37;;;;;;;;;;4982564;28;20229;-82
2023/01/05 09:07:39;;;;;;;13.87;3.57;;;;;;;;;;4993232;28;20280;-82
2023/01/05 09:10:07;;;;;;;14.93;3.23;;;;;;;;;;4979739;28;20214;-82
2023/01/05 09:12:35;;;;;;;17.23;4.40;;;;;;;;;;4988136;28;20244;-83
2023/01/05 09:15:02;;;;;;;12.17;2.93;;;;;;;;;;4991196;28;20191;-82
2023/01/05 09:17:30;;;;;;;17.27;3.63;;;;;;;;;;4994642;28;20229;-83
2023/01/05 09:19:58;;;;;;;14.27;3.23;;;;;;;;;;4983686;28;20232;-83
2023/01/05 09:22:26;;;;;;;16.17;4.30;;;;;;;;;;4995959;28;20222;-82
2023/01/05 09:24:53;;;;;;;11.20;3.27;;;;;;;;;;4993663;28;20260;-82
2023/01/05 09:27:20;;;;;;;12.50;3.50;;;;;;;;;;4989589;28;20240;-82
2023/01/05 09:29:47;;;;;;;14.23;3.27;;;;;;;;;;4987308;28;20214;-83
2023/01/05 09:32:14;;;;;;;13.20;3.17;;;;;;;;;;4980562;28;20208;-82
2023/01/05 09:34:42;;;;;;;17.90;3.87;;;;;;;;;;4985377;28;20204;-82
2023/01/05 09:37:10;;;;;;;14.53;3.37;;;;;;;;;;4994774;28;20216;-83
2023/01/05 09:39:38;;;;;;;18.27;3.70;;;;;;;;;;4995997;28;20226;-82
2023/01/05 09:42:07;;;;;;;13.70;3.23;;;;;;;;;;4995467;28;20213;-82
2023/01/05 09:44:36;;;;;;;15.63;3.63;;;;;;;;;;4996173;28;20211;-83
2023/01/05 09:47:05;;;;;;;13.00;3.13;;;;;;;;;;5010827;28;20213;-82
2023/01/05 09:49:34;;;;;;;11.07;3.17;;;;;;;;;;4993576;28;20292;-83
2023/01/05 09:52:02;;;;;;;12.20;3.83;;;;;;;;;;4994867;28;20196;-84
2023/01/05 09:54:33;;;;;;;11.20;3.40;;;;;;;;;;4989225;28;20237;-84
2023/01/05 09:57:01;;;;;;;11.40;3.47;;;;;;;;;;4995958;28;20284;-82
2023/01/05 09:59:29;;;;;;;14.33;3.93;;;;;;;;;;4993799;28;20212;-82
2023/01/05 10:02:00;;;;;;;15.50;3.93;;;;;;;;;;4986579;28;20202;-82
2023/01/05 10:04:28;;;;;;;14.03;3.43;;;;;;;;;;4989946;28;20202;-82
2023/01/05 10:06:57;;;;;;;16.33;3.23;;;;;;;;;;4992561;28;20205;-82
2023/01/05 10:09:29;;;;;;;16.40;3.40;;;;;;;;;;4993077;28;20228;-83
2023/01/05 10:14:46;;;;;;;15.57;3.47;;;;;;;;;;4975254;28;20190;-83
2023/01/05 10:17:14;;;;;;;15.33;3.90;;;;;;;;;;4988883;28;20204;-83
2023/01/05 10:19:42;;;;;;;17.33;3.73;;;;;;;;;;4990233;28;20201;-83
2023/01/05 10:22:21;;;;;;;14.40;4.17;;;;;;;;;;4983203;28;20205;-82
2023/01/05 10:24:54;;;;;;;13.77;3.30;;;;;;;;;;4982677;28;20244;-83
2023/01/05 10:27:26;;;;;;;13.87;3.50;;;;;;;;;;4988603;28;20296;-82
2023/01/05 10:29:55;;;;;;;20.90;4.00;;;;;;;;;;4984669;28;20220;-82
2023/01/05 10:32:24;;;;;;;17.77;3.87;;;;;;;;;;4986335;28;20257;-82
2023/01/05 10:34:59;;;;;;;12.57;3.33;;;;;;;;;;4984491;28;20209;-83
2023/01/05 10:37:40;;;;;;;16.47;3.50;;;;;;;;;;4988692;28;20308;-82
2023/01/05 10:40:15;;;;;;;16.17;3.73;;;;;;;;;;4997119;28;20209;-83
2023/01/05 10:42:51;;;;;;;17.03;4.27;;;;;;;;;;4994704;28;20291;-82
2023/01/05 10:45:19;;;;;;;16.27;3.90;;;;;;;;;;5004284;28;20196;-82
2023/01/05 10:47:47;;;;;;;16.70;3.80;;;;;;;;;;4992083;28;20202;-82
2023/01/05 10:50:22;;;;;;;15.33;4.47;;;;;;;;;;5002246;28;20216;-83
2023/01/05 10:52:49;;;;;;;15.63;4.93;;;;;;;;;;4985568;28;20205;-82
2023/01/05 10:55:18;;;;;;;15.50;4.20;;;;;;;;;;4987013;28;20285;-82
2023/01/05 10:57:46;;;;;;;15.30;4.30;;;;;;;;;;4986482;28;20293;-82
2023/01/05 11:00:16;;;;;;;16.00;4.37;;;;;;;;;;4987360;28;20288;-82
2023/01/05 11:02:48;;;;;;;18.63;4.53;;;;;;;;;;4989801;28;20197;-83
2023/01/05 11:05:22;;;;;;;18.90;4.03;;;;;;;;;;4989009;28;20209;-82
2023/01/05 11:07:50;;;;;;;13.43;3.97;;;;;;;;;;4990898;28;20208;-83
2023/01/05 11:10:22;;;;;;;13.33;4.13;;;;;;;;;;4991695;28;20217;-82
2023/01/05 11:12:52;;;;;;;16.83;4.40;;;;;;;;;;4986169;28;20237;-82
2023/01/05 11:15:21;;;;;;;14.37;3.60;;;;;;;;;;5000546;28;20283;-82
2023/01/05 11:17:48;;;;;;;15.20;3.70;;;;;;;;;;4997385;28;20269;-82
2023/01/05 11:20:17;;;;;;;18.73;4.10;;;;;;;;;;4997429;28;20221;-83
2023/01/05 11:22:46;;;;;;;12.73;3.40;;;;;;;;;;5002713;28;20214;-82
2023/01/05 11:25:15;;;;;;;14.43;4.20;;;;;;;;;;4992968;28;20210;-82
2023/01/05 11:27:42;;;;;;;12.53;3.20;;;;;;;;;;5006516;28;20205;-84
2023/01/05 11:30:19;;;;;;;14.13;3.17;;;;;;;;;;4999165;28;20370;-82
2023/01/05 11:32:48;;;;;;;14.67;3.30;;;;;;;;;;4990549;28;20329;-83
2023/01/05 11:35:21;;;;;;;17.37;3.57;;;;;;;;;;4997954;28;20212;-82
2023/01/05 11:37:48;;;;;;;14.97;3.03;;;;;;;;;;4979742;28;20206;-82
2023/01/05 11:40:16;;;;;;;16.13;3.50;;;;;;;;;;4994789;28;20205;-83
2023/01/05 11:42:44;;;;;;;16.20;4.90;;;;;;;;;;4997550;28;20296;-83
2023/01/05 11:45:19;;;;;;;14.30;3.37;;;;;;;;;;4995032;28;20201;-82
2023/01/05 11:47:49;;;;;;;15.63;3.83;;;;;;;;;;4985431;28;20209;-82
2023/01/05 11:50:20;;;;;;;18.83;3.63;;;;;;;;;;4990475;28;20228;-82
2023/01/05 11:52:48;;;;;;;13.63;3.57;;;;;;;;;;4995762;28;20197;-83
2023/01/05 11:55:23;;;;;;;12.20;3.90;;;;;;;;;;4993233;28;20210;-83
2023/01/05 11:57:52;;;;;;;13.87;3.23;;;;;;;;;;4997174;28;20212;-82
2023/01/05 12:00:26;;;;;;;13.80;3.40;;;;;;;;;;4992377;28;20240;-84
2023/01/05 12:03:07;;;;;;;12.40;3.37;;;;;;;;;;4985634;28;20198;-82
2023/01/05 12:05:41;;;;;;;13.63;3.20;;;;;;;;;;4994569;28;20233;-84
2023/01/05 12:08:11;;;;;;;13.57;3.53;;;;;;;;;;4988948;28;20201;-82
2023/01/05 12:10:48;;;;;;;13.17;3.37;;;;;;;;;;4990082;28;20275;-82
2023/01/05 12:13:25;;;;;;;13.43;4.30;;;;;;;;;;4989496;28;20320;-82
2023/01/05 12:16:05;;;;;;;13.87;3.67;;;;;;;;;;4997301;28;20273;-82
2023/01/05 12:18:51;;;;;;;12.63;3.30;;;;;;;;;;4993354;28;20292;-83
2023/01/05 12:21:23;;;;;;;16.87;4.00;;;;;;;;;;4982571;28;20205;-84
2023/01/05 12:23:57;;;;;;;16.63;3.83;;;;;;;;;;4980843;28;20213;-83
2023/01/05 12:26:26;;;;;;;13.70;3.97;;;;;;;;;;4993937;28;20217;-84
2023/01/05 12:29:10;;;;;;;14.30;3.80;;;;;;;;;;4987016;28;20228;-82
2023/01/05 12:31:45;;;;;;;14.27;3.47;;;;;;;;;;4993526;28;20226;-81
2023/01/05 12:34:23;;;;;;;14.73;3.95;;;;;;;;;;4993361;28;20193;-80
2023/01/05 12:37:02;;;;;;;14.17;3.17;;;;;;;;;;4998610;28;20277;-80
2023/01/05 12:39:35;;;;;;;13.13;3.77;;;;;;;;;;4991894;28;20288;-80
2023/01/05 12:42:17;;;;;;;16.02;3.67;;;;;;;;;;4997084;28;20225;-81
2023/01/05 12:45:02;;;;;;;10.47;3.10;;;;;;;;;;4996070;28;20266;-81
2023/01/05 12:47:35;;;;;;;15.67;3.83;;;;;;;;;;4977537;28;20225;-81
2023/01/05 12:50:10;;;;;;;13.43;3.50;;;;;;;;;;4989914;28;20309;-82
2023/01/05 12:52:40;;;;;;;17.80;3.60;;;;;;;;;;4982147;28;20198;-83
2023/01/05 12:55:13;;;;;;;15.73;3.72;;;;;;;;;;4988802;28;20214;-84
2023/01/05 12:57:44;;;;;;;14.02;3.25;;;;;;;;;;4996758;28;20198;-82
2023/01/05 13:00:13;;;;;;;15.30;3.30;;;;;;;;;;4986692;28;20253;-83
2023/01/05 13:02:43;;;;;;;14.60;3.50;;;;;;;;;;4981979;28;20209;-83
2023/01/05 13:05:17;;;;;;;11.40;3.07;;;;;;;;;;4994779;28;20225;-83
2023/01/05 13:07:48;;;;;;;16.03;3.73;;;;;;;;;;4993357;28;20196;-84
2023/01/05 13:10:19;;;;;;;20.33;4.20;;;;;;;;;;4991223;28;20300;-84
2023/01/05 13:12:47;;;;;;;13.68;3.50;;;;;;;;;;4991589;28;20241;-81
2023/01/05 13:15:17;;;;;;;12.57;3.53;;;;;;;;;;4989081;28;20265;-82
2023/01/05 13:17:47;;;;;;;14.80;3.63;;;;;;;;;;4990020;28;20210;-83
2023/01/05 13:20:21;;;;;;;14.43;3.70;;;;;;;;;;4995485;28;20292;-84
2023/01/05 13:22:50;;;;;;;13.13;4.00;;;;;;;;;;4995330;28;20220;-82
2023/01/05 13:25:18;;;;;;;17.93;4.20;;;;;;;;;;4995588;28;20209;-82
2023/01/05 13:27:46;;;;;;;15.57;5.73;;;;;;;;;;4993949;28;20193;-81
2023/01/05 13:30:19;;;;;;;15.93;5.20;;;;;;;;;;4986533;28;20230;-82
2023/01/05 13:32:55;;;;;;;12.70;5.03;;;;;;;;;;4983823;28;20210;-82
2023/01/05 13:35:28;;;;;;;14.67;3.90;;;;;;;;;;4993872;28;20222;-83
2023/01/05 13:38:11;;;;;;;11.97;3.50;;;;;;;;;;4992640;28;20212;-83
2023/01/05 13:40:53;;;;;;;12.90;3.43;;;;;;;;;;4993855;28;20200;-83
2023/01/05 13:43:30;;;;;;;11.38;3.47;;;;;;;;;;4977730;28;20289;-85
2023/01/05 13:46:15;;;;;;;11.23;3.60;;;;;;;;;;4986970;28;20206;-83
2023/01/05 13:49:00;;;;;;;13.48;3.10;;;;;;;;;;4986947;28;20202;-84
2023/01/05 13:51:36;;;;;;;16.60;3.78;;;;;;;;;;4977593;28;20221;-85
2023/01/05 13:54:05;;;;;;;16.13;3.97;;;;;;;;;;4990681;28;20203;-84
2023/01/05 13:56:33;;;;;;;15.85;3.83;;;;;;;;;;4993182;28;20264;-84
2023/01/05 13:59:02;;;;;;;13.20;3.47;;;;;;;;;;4982539;28;20285;-84
2023/01/05 14:01:40;;;;;;;15.73;3.80;;;;;;;;;;4995643;28;20218;-84
2023/01/05 14:04:16;;;;;;;11.75;2.88;;;;;;;;;;4988939;28;20197;-84
2023/01/05 14:06:46;;;;;;;12.13;2.53;;;;;;;;;;4990829;28;20229;-84
2023/01/05 14:09:16;;;;;;;11.23;3.00;;;;;;;;;;4987257;28;20287;-83
2023/01/05 14:11:58;;;;;;;17.63;3.70;;;;;;;;;;4991086;28;20335;-83
2023/01/05 14:14:26;;;;;;;11.23;3.23;;;;;;;;;;4992303;28;20197;-86
2023/01/05 14:16:54;;;;;;;14.63;3.00;;;;;;;;;;4992703;28;20288;-83
2023/01/05 14:19:27;;;;;;;14.50;3.50;;;;;;;;;;4986447;28;20236;-83
2023/01/05 14:22:02;;;;;;;10.95;2.70;;;;;;;;;;4990270;28;20212;-83
2023/01/05 14:24:31;;;;;;;12.63;3.03;;;;;;;;;;4985734;28;20205;-83
2023/01/05 14:27:00;;;;;;;15.90;4.03;;;;;;;;;;4988164;28;20202;-85
2023/01/05 14:29:45;;;;;;;15.23;3.63;;;;;;;;;;4981990;28;20290;-83
2023/01/05 14:32:14;;;;;;;14.27;3.60;;;;;;;;;;4981154;28;20225;-84
2023/01/05 14:34:46;;;;;;;10.85;3.38;;;;;;;;;;4988827;28;20217;-82
2023/01/05 14:37:21;;;;;;;13.67;3.37;;;;;;;;;;4986713;28;20224;-83
2023/01/05 14:39:51;;;;;;;14.97;3.17;;;;;;;;;;5004268;28;20375;-84
2023/01/05 14:42:21;;;;;;;11.50;3.60;;;;;;;;;;4997682;28;20216;-84
2023/01/05 14:44:50;;;;;;;18.55;4.13;;;;;;;;;;4998152;28;20228;-84
2023/01/05 14:47:18;;;;;;;17.30;3.97;;;;;;;;;;4991726;28;20197;-83
2023/01/05 14:49:53;;;;;;;14.87;3.93;;;;;;;;;;4994080;28;20289;-84
2023/01/05 14:52:41;;;;;;;14.33;3.77;;;;;;;;;;4986984;28;20209;-84
2023/01/05 14:55:11;;;;;;;15.73;3.97;;;;;;;;;;4993255;28;20213;-84
2023/01/05 14:57:48;;;;;;;14.10;3.33;;;;;;;;;;4986644;28;20204;-85
2023/01/05 15:00:17;;;;;;;15.17;3.53;;;;;;;;;;4995274;28;20209;-84
2023/01/05 15:02:52;;;;;;;13.57;3.77;;;;;;;;;;4995056;28;20198;-83
2023/01/05 15:05:19;;;;;;;16.00;3.50;;;;;;;;;;4990652;28;20213;-86
2023/01/05 15:07:51;;;;;;;14.80;3.40;;;;;;;;;;4983789;28;20270;-86
2023/01/05 15:10:35;;;;;;;14.40;3.30;;;;;;;;;;4998783;28;20224;-86
2023/01/05 15:13:14;;;;;;;16.00;3.60;;;;;;;;;;4972869;28;20232;-87
2023/01/05 15:15:49;;;;;;;14.23;3.50;;;;;;;;;;4990034;28;20201;-88
2023/01/05 15:18:39;;;;;;;16.57;3.47;;;;;;;;;;4989361;28;20193;-82
2023/01/05 15:21:14;;;;;;;13.10;3.67;;;;;;;;;;4988463;28;20294;-86
2023/01/05 15:23:54;;;;;;;12.67;2.93;;;;;;;;;;4990560;28;20229;-83
2023/01/05 15:26:36;;;;;;;17.20;3.00;;;;;;;;;;4991802;28;20201;-82